createdAt,value
2024-02-08T00:01:02.203Z,9.60
2024-02-08T00:03:29.572Z,6.05
2024-02-08T00:05:58.947Z,11.30
2024-02-08T00:08:26.430Z,9.15
2024-02-08T00:10:53.984Z,9.07
2024-02-08T00:13:22.138Z,7.77
2024-02-08T00:15:49.734Z,8.02
2024-02-08T00:18:19.879Z,8.30
2024-02-08T00:20:47.395Z,7.65
2024-02-08T00:23:15.778Z,7.40
2024-02-08T00:25:43.381Z,7.95
2024-02-08T00:28:13.347Z,5.40
2024-02-08T00:30:42.161Z,7.13
2024-02-08T00:33:09.703Z,5.40
2024-02-08T00:35:37.447Z,7.68
2024-02-08T00:38:05.691Z,6.40
2024-02-08T00:40:33.193Z,7.22
2024-02-08T00:43:06.111Z,7.75
2024-02-08T00:45:36.979Z,5.82
2024-02-08T00:48:06.089Z,8.02
2024-02-08T00:50:33.517Z,6.25
2024-02-08T00:53:05.399Z,5.78
2024-02-08T00:55:35.769Z,8.60
2024-02-08T00:58:03.950Z,6.20
2024-02-08T01:00:39.520Z,4.95
2024-02-08T01:03:07.297Z,4.80
2024-02-08T01:05:35.279Z,5.55
2024-02-08T01:08:05.630Z,5.43
2024-02-08T01:10:33.429Z,5.03
2024-02-08T01:13:01.217Z,6.05
2024-02-08T01:15:30.200Z,5.82
2024-02-08T01:18:00.379Z,5.13
2024-02-08T01:20:29.788Z,7.13
2024-02-08T01:22:59.148Z,5.80
2024-02-08T01:25:26.737Z,8.02
2024-02-08T01:27:54.140Z,5.93
2024-02-08T01:30:25.968Z,5.47
2024-02-08T01:32:54.724Z,7.10
2024-02-08T01:35:23.911Z,5.82
2024-02-08T01:37:52.189Z,6.75
2024-02-08T01:40:19.609Z,5.97
2024-02-08T01:42:50.615Z,5.75
2024-02-08T01:45:32.799Z,4.50
2024-02-08T01:48:13.835Z,3.70
2024-02-08T01:50:54.028Z,3.78
2024-02-08T01:53:29.792Z,4.55
2024-02-08T01:56:01.881Z,4.88
2024-02-08T01:58:33.175Z,5.43
2024-02-08T02:01:12.842Z,4.78
2024-02-08T02:03:41.678Z,3.80
2024-02-08T02:06:10.038Z,5.28
2024-02-08T02:11:49.631Z,20.27
2024-02-08T02:14:18.615Z,6.55
2024-02-08T02:16:46.218Z,9.00
2024-02-08T02:19:13.607Z,6.43
2024-02-08T02:21:41.360Z,10.60
2024-02-08T02:24:09.258Z,12.55
2024-02-08T02:26:37.544Z,9.25
2024-02-08T02:29:05.859Z,9.13
2024-02-08T02:31:34.126Z,6.05
2024-02-08T02:34:02.017Z,6.78
2024-02-08T02:36:29.630Z,5.65
2024-02-08T02:38:57.301Z,6.33
2024-02-08T02:41:30.019Z,5.60
2024-02-08T02:43:58.086Z,5.63
2024-02-08T02:46:26.074Z,4.40
2024-02-08T02:48:53.586Z,5.55
2024-02-08T02:51:21.293Z,5.88
2024-02-08T02:53:48.621Z,8.38
2024-02-08T02:56:17.375Z,4.65
2024-02-08T02:58:44.942Z,3.92
2024-02-08T03:01:13.776Z,6.10
2024-02-08T03:03:42.490Z,6.50
2024-02-08T03:06:16.936Z,4.35
2024-02-08T03:08:45.926Z,8.00
2024-02-08T03:11:14.283Z,6.57
2024-02-08T03:13:42.944Z,5.60
2024-02-08T03:18:45.410Z,5.32
2024-02-08T03:21:23.795Z,5.55
2024-02-08T03:23:52.124Z,6.93
2024-02-08T03:26:20.174Z,7.32
2024-02-08T03:28:48.212Z,6.88
2024-02-08T03:31:16.038Z,6.30
2024-02-08T03:33:45.567Z,5.80
2024-02-08T03:36:13.761Z,4.53
2024-02-08T03:38:41.429Z,4.93
2024-02-08T03:41:09.640Z,4.50
2024-02-08T03:43:40.114Z,5.22
2024-02-08T03:46:09.280Z,4.65
2024-02-08T03:48:38.733Z,6.00
2024-02-08T03:51:06.374Z,5.47
2024-02-08T03:53:38.643Z,4.47
2024-02-08T03:56:07.969Z,11.52
2024-02-08T03:58:38.122Z,8.63
2024-02-08T04:01:10.507Z,6.45
2024-02-08T04:03:55.336Z,4.65
2024-02-08T04:06:39.801Z,6.15
2024-02-08T04:09:07.593Z,5.20
2024-02-08T04:11:53.402Z,7.28
2024-02-08T04:14:39.067Z,5.13
2024-02-08T04:17:24.769Z,5.43
2024-02-08T04:20:10.696Z,7.38
2024-02-08T04:23:13.335Z,5.88
2024-02-08T04:25:59.702Z,7.93
2024-02-08T04:28:45.670Z,6.82
2024-02-08T04:31:31.697Z,5.78
2024-02-08T04:34:17.373Z,6.25
2024-02-08T04:37:03.185Z,7.72
2024-02-08T04:39:49.060Z,6.82
2024-02-08T04:42:34.788Z,7.55
2024-02-08T04:45:20.890Z,8.35
2024-02-08T04:48:07.126Z,6.45
2024-02-08T04:50:53.990Z,6.00
2024-02-08T04:53:59.711Z,8.10
2024-02-08T04:56:27.729Z,30.92
2024-02-08T04:59:19.306Z,6.70
2024-02-08T05:01:45.650Z,17.60
2024-02-08T05:04:13.605Z,5.53
2024-02-08T05:06:41.165Z,7.67
2024-02-08T05:09:09.306Z,6.80
2024-02-08T05:11:38.674Z,6.20
2024-02-08T05:14:06.520Z,8.82
2024-02-08T05:16:38.590Z,6.20
2024-02-08T05:19:06.863Z,6.68
2024-02-08T05:21:34.420Z,6.70
2024-02-08T05:24:02.908Z,5.20
2024-02-08T05:29:02.029Z,6.88
2024-02-08T05:31:31.366Z,7.03
2024-02-08T05:33:59.405Z,6.43
2024-02-08T05:36:26.955Z,7.50
2024-02-08T05:38:58.132Z,6.97
2024-02-08T05:41:25.580Z,8.45
2024-02-08T05:43:53.843Z,9.05
2024-02-08T05:49:13.426Z,18.88
2024-02-08T05:51:48.401Z,8.18
2024-02-08T05:54:21.956Z,7.53
2024-02-08T05:56:53.583Z,7.60
2024-02-08T05:59:21.869Z,7.90
2024-02-08T06:01:51.928Z,10.20
2024-02-08T06:04:36.781Z,9.50
2024-02-08T06:07:07.921Z,7.40
2024-02-08T06:09:48.729Z,11.77
2024-02-08T06:12:38.276Z,77.68
2024-02-08T06:15:23.117Z,10.10
2024-02-08T06:18:00.411Z,12.48
2024-02-08T06:20:35.772Z,10.88
2024-02-08T06:23:23.977Z,11.50
2024-02-08T06:26:11.628Z,12.15
2024-02-08T06:28:50.812Z,67.78
2024-02-08T06:31:20.961Z,12.65
2024-02-08T06:34:08.525Z,12.07
2024-02-08T06:36:42.278Z,14.23
2024-02-08T06:39:25.197Z,12.63
2024-02-08T06:41:54.493Z,10.93
2024-02-08T06:44:38.124Z,20.25
2024-02-08T06:47:24.929Z,13.52
2024-02-08T06:50:13.610Z,14.48
2024-02-08T06:52:59.441Z,14.95
2024-02-08T06:55:45.161Z,15.95
2024-02-08T06:58:30.937Z,15.65
2024-02-08T07:01:16.807Z,15.80
2024-02-08T07:04:13.680Z,16.48
2024-02-08T07:07:00.031Z,18.92
2024-02-08T07:09:45.999Z,15.27
2024-02-08T07:12:31.555Z,16.40
2024-02-08T07:15:17.353Z,15.88
2024-02-08T07:18:03.266Z,18.30
2024-02-08T07:20:49.363Z,21.95
2024-02-08T07:23:48.881Z,21.73
2024-02-08T07:26:35.522Z,19.67
2024-02-08T07:29:22.279Z,19.63
2024-02-08T07:32:07.996Z,33.35
2024-02-08T07:34:55.167Z,18.30
2024-02-08T07:37:29.283Z,16.87
2024-02-08T07:40:03.579Z,19.70
2024-02-08T07:42:33.721Z,21.70
2024-02-08T07:45:06.534Z,19.08
2024-02-08T07:47:35.176Z,24.38
2024-02-08T07:50:11.950Z,18.13
2024-02-08T07:52:57.152Z,19.42
2024-02-08T07:55:34.375Z,20.73
2024-02-08T07:58:09.422Z,21.70
2024-02-08T08:00:37.153Z,22.90
2024-02-08T08:03:11.294Z,20.95
2024-02-08T08:05:44.094Z,28.58
2024-02-08T08:08:26.787Z,29.25
2024-02-08T08:11:05.269Z,15.07
2024-02-08T08:13:56.013Z,18.73
2024-02-08T08:16:30.421Z,16.58
2024-02-08T08:19:11.785Z,15.20
2024-02-08T08:22:00.068Z,15.18
2024-02-08T08:24:28.352Z,17.52
2024-02-08T08:27:22.790Z,15.90
2024-02-08T08:29:50.830Z,16.88
2024-02-08T08:32:33.524Z,14.05
2024-02-08T08:35:20.536Z,15.38
2024-02-08T08:37:50.363Z,14.65
2024-02-08T08:40:39.720Z,15.48
2024-02-08T08:43:12.069Z,17.85
2024-02-08T08:45:42.458Z,15.90
2024-02-08T08:48:10.309Z,19.05
2024-02-08T08:50:38.244Z,17.33
2024-02-08T08:53:21.170Z,16.98
2024-02-08T08:55:52.326Z,19.58
2024-02-08T08:58:24.117Z,16.60
2024-02-08T09:01:00.771Z,16.15
2024-02-08T09:03:28.608Z,14.27
2024-02-08T09:06:00.450Z,16.60
2024-02-08T09:08:43.505Z,17.40
2024-02-08T09:11:15.116Z,13.82
2024-02-08T09:13:52.696Z,14.75
2024-02-08T09:16:23.422Z,13.02
2024-02-08T09:19:03.276Z,16.05
2024-02-08T09:21:37.324Z,14.25
2024-02-08T09:24:06.839Z,15.38
2024-02-08T09:26:53.587Z,17.98
2024-02-08T09:29:30.317Z,15.40
2024-02-08T09:32:16.926Z,13.88
2024-02-08T09:34:47.626Z,13.95
2024-02-08T09:37:17.042Z,14.55
2024-02-08T09:39:55.340Z,15.68
2024-02-08T09:42:31.491Z,14.63
2024-02-08T09:45:18.596Z,16.77
2024-02-08T09:47:56.357Z,18.52
2024-02-08T09:50:32.805Z,17.70
2024-02-08T09:53:11.211Z,16.90
2024-02-08T09:55:40.415Z,16.25
2024-02-08T10:00:59.547Z,15.88
2024-02-08T10:03:34.198Z,14.57
2024-02-08T10:06:14.095Z,14.30
2024-02-08T10:08:56.449Z,13.20
2024-02-08T10:11:28.683Z,13.70
2024-02-08T10:14:07.832Z,14.18
2024-02-08T10:16:44.439Z,14.65
2024-02-08T10:19:30.044Z,13.90
2024-02-08T10:22:19.661Z,16.33
2024-02-08T10:24:52.478Z,17.30
2024-02-08T10:27:23.439Z,16.45
2024-02-08T10:29:58.070Z,14.02
2024-02-08T10:32:29.305Z,15.00
2024-02-08T10:35:16.433Z,11.27
2024-02-08T10:38:09.265Z,12.98
2024-02-08T10:40:37.290Z,14.25
2024-02-08T10:43:19.005Z,13.90
2024-02-08T10:46:04.005Z,15.05
2024-02-08T10:48:31.868Z,13.93
2024-02-08T10:51:13.571Z,13.17
2024-02-08T10:53:50.303Z,13.18
2024-02-08T10:56:19.282Z,11.60
2024-02-08T10:59:13.552Z,11.63
2024-02-08T11:01:51.308Z,9.10
2024-02-08T11:04:22.358Z,11.63
2024-02-08T11:06:59.338Z,11.60
2024-02-08T11:09:28.974Z,10.27
2024-02-08T11:12:05.398Z,10.70
2024-02-08T11:14:42.767Z,10.85
2024-02-08T11:17:23.405Z,12.98
2024-02-08T11:20:00.974Z,9.60
2024-02-08T11:22:44.524Z,10.95
2024-02-08T11:25:37.781Z,10.88
2024-02-08T11:28:22.735Z,11.50
2024-02-08T11:30:55.799Z,12.20
2024-02-08T11:33:34.694Z,15.52
2024-02-08T11:36:18.038Z,11.10
2024-02-08T11:38:55.502Z,13.30
2024-02-08T11:41:27.454Z,14.80
2024-02-08T11:44:05.300Z,11.52
2024-02-08T11:46:46.705Z,11.65
2024-02-08T11:49:18.269Z,13.23
2024-02-08T11:51:52.299Z,15.45
2024-02-08T11:54:30.265Z,11.32
2024-02-08T11:56:59.588Z,11.85
2024-02-08T11:59:28.118Z,12.75
2024-02-08T12:01:55.767Z,14.45
2024-02-08T12:04:23.990Z,12.90
2024-02-08T12:07:04.511Z,15.02
2024-02-08T12:09:32.932Z,18.08
2024-02-08T12:12:01.960Z,14.23
2024-02-08T12:14:29.493Z,11.60
2024-02-08T12:17:01.271Z,14.15
2024-02-08T12:19:32.388Z,12.32
2024-02-08T12:22:05.686Z,13.10
2024-02-08T12:24:34.526Z,12.80
2024-02-08T12:29:47.194Z,11.60
2024-02-08T12:32:18.769Z,12.48
2024-02-08T12:34:51.388Z,13.20
2024-02-08T12:37:21.181Z,11.73
2024-02-08T12:39:51.315Z,16.48
2024-02-08T12:42:20.086Z,15.25
2024-02-08T12:44:50.969Z,13.15
2024-02-08T12:47:19.658Z,14.00
2024-02-08T12:52:18.668Z,18.25
2024-02-08T12:54:57.178Z,14.90
2024-02-08T12:57:27.398Z,19.45
2024-02-08T13:00:13.839Z,19.60
2024-02-08T13:02:42.014Z,18.38
2024-02-08T13:05:09.479Z,16.63
2024-02-08T13:07:39.228Z,19.08
2024-02-08T13:10:17.420Z,20.80
2024-02-08T13:12:46.744Z,21.48
2024-02-08T13:15:23.310Z,20.25
2024-02-08T13:17:52.593Z,17.98
2024-02-08T13:20:23.379Z,20.10
2024-02-08T13:22:53.933Z,21.67
2024-02-08T13:25:21.391Z,21.73
2024-02-08T13:27:52.540Z,21.50
2024-02-08T13:30:20.222Z,25.80
2024-02-08T13:32:54.047Z,21.98
2024-02-08T13:35:24.290Z,26.40
2024-02-08T13:37:54.761Z,19.90
2024-02-08T13:40:24.801Z,20.90
2024-02-08T13:42:58.871Z,19.38
2024-02-08T13:45:33.396Z,23.63
2024-02-08T13:48:03.040Z,19.52
2024-02-08T13:50:32.767Z,19.65
2024-02-08T13:53:04.196Z,18.98
2024-02-08T13:55:45.735Z,18.15
2024-02-08T13:58:20.370Z,15.07
2024-02-08T14:00:48.641Z,15.90
2024-02-08T14:03:20.538Z,14.50
2024-02-08T14:05:53.183Z,17.13
2024-02-08T14:08:25.730Z,19.15
2024-02-08T14:10:55.572Z,17.77
2024-02-08T14:13:37.068Z,16.95
2024-02-08T14:16:17.012Z,15.30
2024-02-08T14:18:53.623Z,18.05
2024-02-08T14:21:27.528Z,16.23
2024-02-08T14:24:02.249Z,16.63
2024-02-08T14:26:41.926Z,15.98
2024-02-08T14:29:10.107Z,18.02
2024-02-08T14:31:40.860Z,18.08
2024-02-08T14:34:11.504Z,17.52
2024-02-08T14:36:48.516Z,21.02
2024-02-08T14:39:29.407Z,19.63
2024-02-08T14:41:58.126Z,19.40
2024-02-08T14:44:33.282Z,16.60
2024-02-08T14:47:01.646Z,15.98
2024-02-08T14:49:31.896Z,16.08
2024-02-08T14:52:04.908Z,20.88
2024-02-08T14:54:33.144Z,15.18
2024-02-08T14:57:07.135Z,16.15
2024-02-08T14:59:52.754Z,18.75
2024-02-08T15:02:24.438Z,14.75
2024-02-08T15:05:02.250Z,15.73
2024-02-08T15:07:49.622Z,15.52
2024-02-08T15:10:23.010Z,15.73
2024-02-08T15:13:13.190Z,15.13
2024-02-08T15:15:41.616Z,16.40
2024-02-08T15:18:16.524Z,17.90
2024-02-08T15:20:49.050Z,26.25
2024-02-08T15:23:54.877Z,20.60
2024-02-08T15:26:26.775Z,19.35
2024-02-08T15:28:58.904Z,19.02
2024-02-08T15:31:47.695Z,17.42
2024-02-08T15:34:18.709Z,14.80
2024-02-08T15:36:58.510Z,16.80
2024-02-08T15:39:49.019Z,18.95
2024-02-08T15:42:21.524Z,16.67
2024-02-08T15:44:54.538Z,17.95
2024-02-08T15:47:22.707Z,18.23
2024-02-08T15:49:56.007Z,12.52
2024-02-08T15:52:27.614Z,18.58
2024-02-08T15:54:59.913Z,18.85
2024-02-08T15:57:34.553Z,20.63
2024-02-08T16:00:02.697Z,18.33
2024-02-08T16:02:36.274Z,19.40
2024-02-08T16:05:16.294Z,19.60
2024-02-08T16:07:44.408Z,20.90
2024-02-08T16:10:33.032Z,24.35
2024-02-08T16:13:07.060Z,24.55
2024-02-08T16:15:57.969Z,24.88
2024-02-08T16:18:30.846Z,26.10
2024-02-08T16:21:00.581Z,24.67
2024-02-08T16:23:28.935Z,22.17
2024-02-08T16:28:39.268Z,22.13
2024-02-08T16:31:07.068Z,21.27
2024-02-08T16:33:35.515Z,24.00
2024-02-08T16:39:16.708Z,23.88
2024-02-08T16:41:50.230Z,24.75
2024-02-08T16:44:31.170Z,28.30
2024-02-08T16:47:01.378Z,28.52
2024-02-08T16:49:31.316Z,27.23
2024-02-08T16:52:06.021Z,30.10
2024-02-08T16:54:36.803Z,29.75
2024-02-08T16:57:05.083Z,30.02
2024-02-08T16:59:46.485Z,32.15
2024-02-08T17:02:34.322Z,34.35
2024-02-08T17:05:19.485Z,34.72
2024-02-08T17:07:48.786Z,39.55
2024-02-08T17:10:38.290Z,40.22
2024-02-08T17:13:17.972Z,39.05
2024-02-08T17:16:03.624Z,37.88
2024-02-08T17:18:48.521Z,37.60
2024-02-08T17:21:37.513Z,38.08
2024-02-08T17:24:10.174Z,38.05
2024-02-08T17:26:37.656Z,34.65
2024-02-08T17:29:08.870Z,36.80
2024-02-08T17:31:43.932Z,39.88
2024-02-08T17:34:15.456Z,35.83
2024-02-08T17:36:46.925Z,39.40
2024-02-08T17:39:26.241Z,39.90
2024-02-08T17:41:58.544Z,38.67
2024-02-08T17:44:31.531Z,36.22
2024-02-08T17:47:01.544Z,31.98
2024-02-08T17:49:31.483Z,38.88
2024-02-08T17:52:01.102Z,38.42
2024-02-08T17:54:33.473Z,32.22
2024-02-08T17:57:03.972Z,38.63
2024-02-08T17:59:31.626Z,39.40
2024-02-08T18:02:03.135Z,40.15
2024-02-08T18:04:38.403Z,35.78
2024-02-08T18:07:10.943Z,29.85
2024-02-08T18:09:41.792Z,37.40
2024-02-08T18:12:23.022Z,31.33
2024-02-08T18:14:57.900Z,32.20
2024-02-08T18:17:25.877Z,33.97
2024-02-08T18:19:54.363Z,34.88
2024-02-08T18:22:30.211Z,35.67
2024-02-08T18:24:59.490Z,30.80
2024-02-08T18:27:34.011Z,35.72
2024-02-08T18:30:06.080Z,29.00
2024-02-08T18:32:36.324Z,31.55
2024-02-08T18:35:09.025Z,30.52
2024-02-08T18:37:37.378Z,27.85
2024-02-08T18:40:09.573Z,22.23
2024-02-08T18:42:40.150Z,24.40
2024-02-08T18:45:18.162Z,23.00
2024-02-08T18:47:46.540Z,26.83
2024-02-08T18:50:14.609Z,27.97
2024-02-08T18:52:43.632Z,31.67
2024-02-08T18:55:17.877Z,29.95
2024-02-08T18:57:47.554Z,31.10
2024-02-08T19:00:24.314Z,30.52
2024-02-08T19:02:52.164Z,30.50
2024-02-08T19:05:19.842Z,29.27
2024-02-08T19:07:48.374Z,32.25
2024-02-08T19:10:16.209Z,29.23
2024-02-08T19:12:43.904Z,27.85
2024-02-08T19:15:11.310Z,29.97
2024-02-08T19:17:43.318Z,31.73
2024-02-08T19:20:20.562Z,32.42
2024-02-08T19:22:49.529Z,32.30
2024-02-08T19:25:20.674Z,26.55
2024-02-08T19:27:51.130Z,26.98
2024-02-08T19:30:19.041Z,28.02
2024-02-08T19:32:47.403Z,26.85
2024-02-08T19:35:23.720Z,25.40
2024-02-08T19:37:51.683Z,24.58
2024-02-08T19:40:23.005Z,22.65
2024-02-08T19:42:52.342Z,25.17
2024-02-08T19:45:25.210Z,21.40
2024-02-08T19:47:55.338Z,21.27
2024-02-08T19:50:30.290Z,22.42
2024-02-08T19:53:07.763Z,21.95
2024-02-08T19:55:40.334Z,22.13
2024-02-08T19:58:11.768Z,18.65
2024-02-08T20:00:39.435Z,22.30
2024-02-08T20:03:17.842Z,21.43
2024-02-08T20:08:17.924Z,21.08
2024-02-08T20:13:19.788Z,20.33
2024-02-08T20:15:49.424Z,22.65
2024-02-08T20:18:20.223Z,21.58
2024-02-08T20:20:53.878Z,22.33
2024-02-08T20:23:23.547Z,23.98
2024-02-08T20:25:51.740Z,23.95
2024-02-08T20:28:19.238Z,21.30
2024-02-08T20:30:50.632Z,21.07
2024-02-08T20:33:20.120Z,22.75
2024-02-08T20:35:47.940Z,22.40
2024-02-08T20:38:20.641Z,19.63
2024-02-08T20:40:50.742Z,20.13
2024-02-08T20:43:23.042Z,21.95
2024-02-08T20:45:50.970Z,20.02
2024-02-08T20:48:22.510Z,18.20
2024-02-08T20:50:52.148Z,19.80
2024-02-08T20:53:20.067Z,19.00
2024-02-08T20:55:49.391Z,17.73
2024-02-08T20:58:18.793Z,19.40
2024-02-08T21:00:47.933Z,17.70
2024-02-08T21:03:17.256Z,17.30
2024-02-08T21:05:48.449Z,18.95
2024-02-08T21:08:19.620Z,18.88
2024-02-08T21:10:49.860Z,16.77
2024-02-08T21:13:19.079Z,17.27
2024-02-08T21:15:49.155Z,17.38
2024-02-08T21:18:20.438Z,17.27
2024-02-08T21:20:52.655Z,18.75
2024-02-08T21:23:23.408Z,18.98
2024-02-08T21:25:54.920Z,16.65
2024-02-08T21:28:26.891Z,17.40
2024-02-08T21:30:58.390Z,18.25
2024-02-08T21:33:29.443Z,14.57
2024-02-08T21:36:01.681Z,15.77
2024-02-08T21:38:30.470Z,16.85
2024-02-08T21:40:59.090Z,17.77
2024-02-08T21:43:28.621Z,16.52
2024-02-08T21:45:56.461Z,17.88
2024-02-08T21:48:25.407Z,18.13
2024-02-08T21:50:54.075Z,15.75
2024-02-08T21:55:52.106Z,15.25
2024-02-08T21:58:20.121Z,14.80
2024-02-08T22:03:35.976Z,15.40
2024-02-08T22:06:04.250Z,14.90
2024-02-08T22:08:32.047Z,16.60
2024-02-08T22:10:59.725Z,14.68
2024-02-08T22:13:29.732Z,14.32
2024-02-08T22:15:58.199Z,13.48
2024-02-08T22:18:26.171Z,13.38
2024-02-08T22:20:54.532Z,16.10
2024-02-08T22:23:22.021Z,13.13
2024-02-08T22:25:50.050Z,13.07
2024-02-08T22:28:18.862Z,12.75
2024-02-08T22:30:47.133Z,13.68
2024-02-08T22:33:15.512Z,12.13
2024-02-08T22:35:43.023Z,12.77
2024-02-08T22:38:10.974Z,13.77
2024-02-08T22:40:39.416Z,14.13
2024-02-08T22:45:39.261Z,12.87
2024-02-08T22:48:09.806Z,13.15
2024-02-08T22:50:37.856Z,15.45
2024-02-08T22:53:07.220Z,13.48
2024-02-08T22:55:34.731Z,13.88
2024-02-08T22:58:02.843Z,12.73
2024-02-08T23:00:30.614Z,12.93
2024-02-08T23:03:14.885Z,13.23
2024-02-08T23:05:45.487Z,14.45
2024-02-08T23:08:17.247Z,12.20
2024-02-08T23:10:45.058Z,12.80
2024-02-08T23:13:12.838Z,13.15
2024-02-08T23:15:50.789Z,12.73
2024-02-08T23:18:24.345Z,13.18
2024-02-08T23:20:55.146Z,13.32
2024-02-08T23:23:23.079Z,12.95
2024-02-08T23:25:51.234Z,13.30
2024-02-08T23:28:21.826Z,13.05
2024-02-08T23:30:51.482Z,12.85
2024-02-08T23:33:24.907Z,13.60
2024-02-08T23:35:53.052Z,12.30
2024-02-08T23:38:22.289Z,14.98
2024-02-08T23:40:49.906Z,12.82
2024-02-08T23:43:17.847Z,8.32
2024-02-08T23:45:46.948Z,12.30
2024-02-08T23:48:15.580Z,10.15
2024-02-08T23:50:44.169Z,14.25
2024-02-08T23:55:39.382Z,10.77
2024-02-08T23:58:12.656Z,10.35
